Rocky Mountain Metropolitan Airport
KBJC : now visible

Airfield :











YOU CAN JOIN US ON...

 
LOGIN :

Register | Disclaimer

   EN    FR    IT 

 









Legend :    VFR   Marginal VFR   IFR   Intensive IFR   Very Intensive IFR
Visi :
Ceiling :
>= 8 km
>= 3000ft
5 to 8 km
1000 to 3000 ft
1500m to 5 km
500 to 1000 ft
800 to 1500m
200 to 500 ft
< 800m
< 200 ft
Symbols :   Thunderstorms  Fog  Heavy snow  Heavy precipitations  Wind > 20 kt






- Airport Elevation : 5673 ft


KBJC - Rocky Mountain Metropolitan

CURRENT METAR :
  • 270245Z 36005KT 5SM -SN OVC020 M09/M11 A2986

EXPIRED METARs :
  • 270150Z 01006KT 5SM -SN OVC015 M09/M10 A2983
  • 270050Z 36008KT 3/4SM -SN OVC013 M08/M09 A2981
  • 262355Z 35012KT 3/4SM SN OVC002 M07/M08 A2979

TAF KBJC
Valid from the 27 at 03:00 until the 28 at 00:00 UTC


270242Z 2703/2724 36007KT 5SM -SN BR OVC015
FM270500 32007KT P6SM VCSH BKN015
FM270800 VRB05KT P6SM SCT020
FM270900 25005KT P6SM VCFG SCT002
TEMPO 2710/2714 1/4SM FZFG VV001
FM271500 22006KT P6SM FEW200
FM271800 02007KT P6SM FEW200
KZDV FIR / North America



MET'MAP, your aeronautical weather chart ! - Copyright ORBIFLY December 2007 - Disclaimer

ORBIFLY MET'MAP TEAM :

Programming & Development : Alexandra Zaïnal
Concept & original design : Baudouin d'Aumeries
Assistance for programming : Marc-Olivier Méhu
Technical & hardware support : Manuel Goepfert

Contact : metmap@orbifly.com




SOURCES & CREDITS :

   NOAA       Earth
Advisory